sensor_id;sensor_type;location;lat;lon;timestamp;temperature;humidity
32446;DHT22;18899;50.748;7.102;2023-04-01T00:00:51;12.20;99.90
32446;DHT22;18899;50.748;7.102;2023-04-01T00:03:18;12.20;99.90
32446;DHT22;18899;50.748;7.102;2023-04-01T00:05:45;12.10;99.90
32446;DHT22;18899;50.748;7.102;2023-04-01T00:08:10;12.10;99.90
32446;DHT22;18899;50.748;7.102;2023-04-01T00:10:36;12.10;99.90
32446;DHT22;18899;50.748;7.102;2023-04-01T00:13:01;12.20;99.90
32446;DHT22;18899;50.748;7.102;2023-04-01T00:15:27;12.10;99.90
32446;DHT22;18899;50.748;7.102;2023-04-01T00:17:52;12.10;99.90
32446;DHT22;18899;50.748;7.102;2023-04-01T00:20:19;12.20;99.90
32446;DHT22;18899;50.748;7.102;2023-04-01T00:22:45;12.20;99.90
32446;DHT22;18899;50.748;7.102;2023-04-01T00:25:11;12.10;99.90
32446;DHT22;18899;50.748;7.102;2023-04-01T00:27:37;12.20;99.90
32446;DHT22;18899;50.748;7.102;2023-04-01T00:30:03;12.10;99.90
32446;DHT22;18899;50.748;7.102;2023-04-01T00:32:28;12.00;99.90
32446;DHT22;18899;50.748;7.102;2023-04-01T00:34:55;12.00;99.90
32446;DHT22;18899;50.748;7.102;2023-04-01T00:37:21;12.00;99.90
32446;DHT22;18899;50.748;7.102;2023-04-01T00:39:46;12.00;99.90
32446;DHT22;18899;50.748;7.102;2023-04-01T00:42:12;12.00;99.90
32446;DHT22;18899;50.748;7.102;2023-04-01T00:44:39;12.00;99.90
32446;DHT22;18899;50.748;7.102;2023-04-01T00:47:05;11.90;99.90
32446;DHT22;18899;50.748;7.102;2023-04-01T00:49:37;12.10;99.90
32446;DHT22;18899;50.748;7.102;2023-04-01T00:52:05;12.00;99.90
32446;DHT22;18899;50.748;7.102;2023-04-01T00:54:34;12.00;99.90
32446;DHT22;18899;50.748;7.102;2023-04-01T00:57:12;12.00;99.90
32446;DHT22;18899;50.748;7.102;2023-04-01T00:59:42;12.00;99.90
32446;DHT22;18899;50.748;7.102;2023-04-01T01:02:10;12.00;99.90
32446;DHT22;18899;50.748;7.102;2023-04-01T01:04:36;12.00;99.90
32446;DHT22;18899;50.748;7.102;2023-04-01T01:10:01;11.90;99.90
32446;DHT22;18899;50.748;7.102;2023-04-01T01:12:39;12.00;99.90
32446;DHT22;18899;50.748;7.102;2023-04-01T01:15:20;11.90;99.90
32446;DHT22;18899;50.748;7.102;2023-04-01T01:21:06;12.00;99.90
32446;DHT22;18899;50.748;7.102;2023-04-01T01:37:26;11.90;99.90
32446;DHT22;18899;50.748;7.102;2023-04-01T01:39:59;11.90;99.90
32446;DHT22;18899;50.748;7.102;2023-04-01T01:42:27;11.90;99.90
32446;DHT22;18899;50.748;7.102;2023-04-01T01:44:55;11.90;99.90
32446;DHT22;18899;50.748;7.102;2023-04-01T01:47:22;11.80;99.90
32446;DHT22;18899;50.748;7.102;2023-04-01T01:49:49;11.80;99.90
32446;DHT22;18899;50.748;7.102;2023-04-01T01:52:16;11.90;99.90
32446;DHT22;18899;50.748;7.102;2023-04-01T01:54:53;11.90;99.90
32446;DHT22;18899;50.748;7.102;2023-04-01T01:57:45;11.80;99.90
32446;DHT22;18899;50.748;7.102;2023-04-01T02:00:12;11.90;99.90
32446;DHT22;18899;50.748;7.102;2023-04-01T02:02:42;11.80;99.90
32446;DHT22;18899;50.748;7.102;2023-04-01T02:05:11;11.80;99.90
32446;DHT22;18899;50.748;7.102;2023-04-01T02:07:44;11.80;99.90
32446;DHT22;18899;50.748;7.102;2023-04-01T02:10:12;11.80;99.90
32446;DHT22;18899;50.748;7.102;2023-04-01T02:12:38;11.70;99.90
32446;DHT22;18899;50.748;7.102;2023-04-01T02:15:08;11.80;99.90
32446;DHT22;18899;50.748;7.102;2023-04-01T02:17:37;11.80;99.90
32446;DHT22;18899;50.748;7.102;2023-04-01T02:20:15;11.80;99.90
32446;DHT22;18899;50.748;7.102;2023-04-01T02:22:52;11.80;99.90
32446;DHT22;18899;50.748;7.102;2023-04-01T02:25:23;11.80;99.90
32446;DHT22;18899;50.748;7.102;2023-04-01T02:27:50;11.70;99.90
32446;DHT22;18899;50.748;7.102;2023-04-01T02:30:16;11.80;99.90
32446;DHT22;18899;50.748;7.102;2023-04-01T02:32:43;11.70;99.90
32446;DHT22;18899;50.748;7.102;2023-04-01T02:35:11;11.70;99.90
32446;DHT22;18899;50.748;7.102;2023-04-01T02:37:38;11.60;99.90
32446;DHT22;18899;50.748;7.102;2023-04-01T02:40:08;11.50;99.90
32446;DHT22;18899;50.748;7.102;2023-04-01T02:42:34;11.50;99.90
32446;DHT22;18899;50.748;7.102;2023-04-01T02:44:59;11.50;99.90
32446;DHT22;18899;50.748;7.102;2023-04-01T02:47:25;11.50;99.90
32446;DHT22;18899;50.748;7.102;2023-04-01T02:49:51;11.50;99.90
32446;DHT22;18899;50.748;7.102;2023-04-01T02:52:23;11.40;99.90
32446;DHT22;18899;50.748;7.102;2023-04-01T02:54:49;11.40;99.90
32446;DHT22;18899;50.748;7.102;2023-04-01T02:57:14;11.40;99.90
32446;DHT22;18899;50.748;7.102;2023-04-01T02:59:40;11.40;99.90
32446;DHT22;18899;50.748;7.102;2023-04-01T03:02:05;11.30;99.90
32446;DHT22;18899;50.748;7.102;2023-04-01T03:04:32;11.30;99.90
32446;DHT22;18899;50.748;7.102;2023-04-01T03:06:57;11.30;99.90
32446;DHT22;18899;50.748;7.102;2023-04-01T03:09:23;11.20;99.90
32446;DHT22;18899;50.748;7.102;2023-04-01T03:11:48;11.20;99.90
32446;DHT22;18899;50.748;7.102;2023-04-01T03:14:14;11.10;99.90
32446;DHT22;18899;50.748;7.102;2023-04-01T03:16:39;11.10;99.90
32446;DHT22;18899;50.748;7.102;2023-04-01T03:19:05;11.00;99.90
32446;DHT22;18899;50.748;7.102;2023-04-01T03:21:31;11.00;99.90
32446;DHT22;18899;50.748;7.102;2023-04-01T03:23:56;10.90;99.90
32446;DHT22;18899;50.748;7.102;2023-04-01T03:26:22;10.80;99.90
32446;DHT22;18899;50.748;7.102;2023-04-01T03:28:48;10.70;99.90
32446;DHT22;18899;50.748;7.102;2023-04-01T03:31:13;10.70;99.90
32446;DHT22;18899;50.748;7.102;2023-04-01T03:33:41;10.70;99.90
32446;DHT22;18899;50.748;7.102;2023-04-01T03:36:07;10.60;99.90
32446;DHT22;18899;50.748;7.102;2023-04-01T03:38:34;10.70;99.90
32446;DHT22;18899;50.748;7.102;2023-04-01T03:41:00;10.80;99.90
32446;DHT22;18899;50.748;7.102;2023-04-01T03:43:25;10.80;99.90
32446;DHT22;18899;50.748;7.102;2023-04-01T03:45:51;10.90;99.90
32446;DHT22;18899;50.748;7.102;2023-04-01T03:48:17;10.90;99.90
32446;DHT22;18899;50.748;7.102;2023-04-01T03:50:44;10.90;99.90
32446;DHT22;18899;50.748;7.102;2023-04-01T03:53:10;11.00;99.90
32446;DHT22;18899;50.748;7.102;2023-04-01T03:55:36;11.00;99.90
32446;DHT22;18899;50.748;7.102;2023-04-01T03:58:03;11.10;99.90
32446;DHT22;18899;50.748;7.102;2023-04-01T04:00:29;11.10;99.90
32446;DHT22;18899;50.748;7.102;2023-04-01T04:02:55;11.20;99.90
32446;DHT22;18899;50.748;7.102;2023-04-01T04:05:22;11.20;99.90
32446;DHT22;18899;50.748;7.102;2023-04-01T04:07:48;11.30;99.90
32446;DHT22;18899;50.748;7.102;2023-04-01T04:10:14;11.30;99.90
32446;DHT22;18899;50.748;7.102;2023-04-01T04:12:39;11.30;99.90
32446;DHT22;18899;50.748;7.102;2023-04-01T04:15:06;11.30;99.90
32446;DHT22;18899;50.748;7.102;2023-04-01T04:17:32;11.30;99.90
32446;DHT22;18899;50.748;7.102;2023-04-01T04:19:57;11.40;99.90
32446;DHT22;18899;50.748;7.102;2023-04-01T04:22:23;11.40;99.90
32446;DHT22;18899;50.748;7.102;2023-04-01T04:24:48;11.40;99.90
32446;DHT22;18899;50.748;7.102;2023-04-01T04:27:14;11.40;99.90
32446;DHT22;18899;50.748;7.102;2023-04-01T04:29:39;11.30;99.90
32446;DHT22;18899;50.748;7.102;2023-04-01T04:32:05;11.40;99.90
32446;DHT22;18899;50.748;7.102;2023-04-01T04:34:31;11.50;99.90
32446;DHT22;18899;50.748;7.102;2023-04-01T04:36:56;11.50;99.90
32446;DHT22;18899;50.748;7.102;2023-04-01T04:39:22;11.50;99.90
32446;DHT22;18899;50.748;7.102;2023-04-01T04:41:47;11.40;99.90
32446;DHT22;18899;50.748;7.102;2023-04-01T04:44:13;11.30;99.90
32446;DHT22;18899;50.748;7.102;2023-04-01T04:46:38;11.30;99.90
32446;DHT22;18899;50.748;7.102;2023-04-01T04:49:05;11.30;99.90
32446;DHT22;18899;50.748;7.102;2023-04-01T04:51:30;11.50;99.90
32446;DHT22;18899;50.748;7.102;2023-04-01T04:53:59;11.50;99.90
32446;DHT22;18899;50.748;7.102;2023-04-01T04:56:25;11.50;99.90
32446;DHT22;18899;50.748;7.102;2023-04-01T04:58:51;11.50;99.90
32446;DHT22;18899;50.748;7.102;2023-04-01T05:01:18;11.40;99.90
32446;DHT22;18899;50.748;7.102;2023-04-01T05:03:44;11.30;99.90
32446;DHT22;18899;50.748;7.102;2023-04-01T05:06:12;11.30;99.90
32446;DHT22;18899;50.748;7.102;2023-04-01T05:08:38;11.30;99.90
32446;DHT22;18899;50.748;7.102;2023-04-01T05:11:07;11.20;99.90
32446;DHT22;18899;50.748;7.102;2023-04-01T05:13:35;11.20;99.90
32446;DHT22;18899;50.748;7.102;2023-04-01T05:16:01;11.20;99.90
32446;DHT22;18899;50.748;7.102;2023-04-01T05:18:27;11.20;99.90
32446;DHT22;18899;50.748;7.102;2023-04-01T05:20:54;11.10;99.90
32446;DHT22;18899;50.748;7.102;2023-04-01T05:23:21;11.00;99.90
32446;DHT22;18899;50.748;7.102;2023-04-01T05:25:48;10.90;99.90
32446;DHT22;18899;50.748;7.102;2023-04-01T05:28:14;10.90;99.90
32446;DHT22;18899;50.748;7.102;2023-04-01T05:30:40;10.80;99.90
32446;DHT22;18899;50.748;7.102;2023-04-01T05:33:07;10.80;99.90
32446;DHT22;18899;50.748;7.102;2023-04-01T05:35:32;10.80;99.90
32446;DHT22;18899;50.748;7.102;2023-04-01T05:37:58;10.90;99.90
32446;DHT22;18899;50.748;7.102;2023-04-01T05:40:23;10.90;99.90
32446;DHT22;18899;50.748;7.102;2023-04-01T05:42:49;10.90;99.90
32446;DHT22;18899;50.748;7.102;2023-04-01T05:45:15;10.90;99.90
32446;DHT22;18899;50.748;7.102;2023-04-01T05:47:41;10.90;99.90
32446;DHT22;18899;50.748;7.102;2023-04-01T05:50:08;10.90;99.90
32446;DHT22;18899;50.748;7.102;2023-04-01T05:52:34;10.80;99.90
32446;DHT22;18899;50.748;7.102;2023-04-01T05:54:59;10.70;99.90
32446;DHT22;18899;50.748;7.102;2023-04-01T05:57:26;10.80;99.90
32446;DHT22;18899;50.748;7.102;2023-04-01T05:59:51;10.70;99.90
32446;DHT22;18899;50.748;7.102;2023-04-01T06:02:17;10.70;99.90
32446;DHT22;18899;50.748;7.102;2023-04-01T06:04:43;10.70;99.90
32446;DHT22;18899;50.748;7.102;2023-04-01T06:07:17;10.90;99.90
32446;DHT22;18899;50.748;7.102;2023-04-01T06:09:44;10.90;99.90
32446;DHT22;18899;50.748;7.102;2023-04-01T06:15:25;11.00;99.90
32446;DHT22;18899;50.748;7.102;2023-04-01T06:21:35;11.10;99.90
32446;DHT22;18899;50.748;7.102;2023-04-01T06:24:13;11.00;99.90
32446;DHT22;18899;50.748;7.102;2023-04-01T06:35:03;10.90;99.90
32446;DHT22;18899;50.748;7.102;2023-04-01T06:38:01;10.90;99.90
32446;DHT22;18899;50.748;7.102;2023-04-01T06:41:06;10.90;99.90
32446;DHT22;18899;50.748;7.102;2023-04-01T06:46:19;11.20;99.90
32446;DHT22;18899;50.748;7.102;2023-04-01T06:49:04;11.30;99.90
32446;DHT22;18899;50.748;7.102;2023-04-01T06:57:48;11.50;99.90
32446;DHT22;18899;50.748;7.102;2023-04-01T07:00:31;11.50;99.90
32446;DHT22;18899;50.748;7.102;2023-04-01T07:03:32;11.50;99.90
32446;DHT22;18899;50.748;7.102;2023-04-01T07:06:05;11.60;99.90
32446;DHT22;18899;50.748;7.102;2023-04-01T07:08:35;11.60;99.90
32446;DHT22;18899;50.748;7.102;2023-04-01T07:11:17;11.60;99.90
32446;DHT22;18899;50.748;7.102;2023-04-01T07:13:58;11.80;99.90
32446;DHT22;18899;50.748;7.102;2023-04-01T07:16:34;11.90;99.90
32446;DHT22;18899;50.748;7.102;2023-04-01T07:22:10;11.90;99.90
32446;DHT22;18899;50.748;7.102;2023-04-01T07:24:44;11.90;99.90
32446;DHT22;18899;50.748;7.102;2023-04-01T07:27:11;12.00;99.90
32446;DHT22;18899;50.748;7.102;2023-04-01T07:29:37;12.10;99.90
32446;DHT22;18899;50.748;7.102;2023-04-01T07:32:26;12.00;99.90
32446;DHT22;18899;50.748;7.102;2023-04-01T07:35:17;12.00;99.90
32446;DHT22;18899;50.748;7.102;2023-04-01T07:43:58;12.20;99.90
32446;DHT22;18899;50.748;7.102;2023-04-01T07:46:40;12.10;99.90
32446;DHT22;18899;50.748;7.102;2023-04-01T07:49:33;12.10;99.90
32446;DHT22;18899;50.748;7.102;2023-04-01T07:57:34;12.30;99.90
32446;DHT22;18899;50.748;7.102;2023-04-01T08:00:16;12.30;99.90
32446;DHT22;18899;50.748;7.102;2023-04-01T08:05:41;12.30;99.90
32446;DHT22;18899;50.748;7.102;2023-04-01T08:11:10;12.20;99.90
32446;DHT22;18899;50.748;7.102;2023-04-01T08:17:05;12.00;99.90
32446;DHT22;18899;50.748;7.102;2023-04-01T08:22:36;11.80;99.90
32446;DHT22;18899;50.748;7.102;2023-04-01T08:25:05;12.00;99.90
32446;DHT22;18899;50.748;7.102;2023-04-01T08:27:43;12.20;99.90
32446;DHT22;18899;50.748;7.102;2023-04-01T08:30:23;12.40;99.90
32446;DHT22;18899;50.748;7.102;2023-04-01T08:32:59;12.40;99.90
32446;DHT22;18899;50.748;7.102;2023-04-01T08:35:37;12.30;99.90
32446;DHT22;18899;50.748;7.102;2023-04-01T08:38:18;12.40;99.90
32446;DHT22;18899;50.748;7.102;2023-04-01T08:43:30;12.40;99.90
32446;DHT22;18899;50.748;7.102;2023-04-01T08:46:44;12.30;99.90
32446;DHT22;18899;50.748;7.102;2023-04-01T08:49:22;12.30;99.90
32446;DHT22;18899;50.748;7.102;2023-04-01T08:52:17;12.40;99.90
32446;DHT22;18899;50.748;7.102;2023-04-01T08:58:03;12.60;99.90
32446;DHT22;18899;50.748;7.102;2023-04-01T09:00:52;12.60;99.90
32446;DHT22;18899;50.748;7.102;2023-04-01T09:09:23;12.80;99.90
32446;DHT22;18899;50.748;7.102;2023-04-01T09:12:18;12.70;99.90
32446;DHT22;18899;50.748;7.102;2023-04-01T09:26:15;12.60;99.90
32446;DHT22;18899;50.748;7.102;2023-04-01T09:35:01;12.70;99.90
32446;DHT22;18899;50.748;7.102;2023-04-01T09:37:51;12.40;99.90
32446;DHT22;18899;50.748;7.102;2023-04-01T09:43:06;12.30;99.90
32446;DHT22;18899;50.748;7.102;2023-04-01T09:48:40;12.40;99.90
32446;DHT22;18899;50.748;7.102;2023-04-01T09:51:31;12.60;99.90
32446;DHT22;18899;50.748;7.102;2023-04-01T09:54:11;13.00;99.90
32446;DHT22;18899;50.748;7.102;2023-04-01T10:13:47;13.60;99.90
32446;DHT22;18899;50.748;7.102;2023-04-01T10:16:57;13.70;99.90
32446;DHT22;18899;50.748;7.102;2023-04-01T10:19:39;13.70;99.90
32446;DHT22;18899;50.748;7.102;2023-04-01T10:38:26;13.80;99.90
32446;DHT22;18899;50.748;7.102;2023-04-01T10:44:17;14.00;99.90
32446;DHT22;18899;50.748;7.102;2023-04-01T10:47:12;13.70;99.90
32446;DHT22;18899;50.748;7.102;2023-04-01T10:56:01;14.00;99.90
32446;DHT22;18899;50.748;7.102;2023-04-01T10:59:06;14.20;99.90
32446;DHT22;18899;50.748;7.102;2023-04-01T11:04:51;14.30;99.90
32446;DHT22;18899;50.748;7.102;2023-04-01T11:10:11;14.50;99.90
32446;DHT22;18899;50.748;7.102;2023-04-01T11:16:06;14.50;99.90
32446;DHT22;18899;50.748;7.102;2023-04-01T11:32:54;14.00;99.90
32446;DHT22;18899;50.748;7.102;2023-04-01T11:35:48;14.10;99.90
32446;DHT22;18899;50.748;7.102;2023-04-01T11:41:32;13.60;99.90
32446;DHT22;18899;50.748;7.102;2023-04-01T12:00:52;13.90;99.90
32446;DHT22;18899;50.748;7.102;2023-04-01T12:03:35;14.00;99.90
32446;DHT22;18899;50.748;7.102;2023-04-01T12:14:21;13.60;99.90
32446;DHT22;18899;50.748;7.102;2023-04-01T12:22:23;13.80;99.90
32446;DHT22;18899;50.748;7.102;2023-04-01T12:39:22;14.10;99.90
32446;DHT22;18899;50.748;7.102;2023-04-01T12:41:59;13.90;99.90
32446;DHT22;18899;50.748;7.102;2023-04-01T12:52:34;14.60;99.90
32446;DHT22;18899;50.748;7.102;2023-04-01T12:58:37;14.80;99.90
32446;DHT22;18899;50.748;7.102;2023-04-01T13:06:42;14.50;99.90
32446;DHT22;18899;50.748;7.102;2023-04-01T13:09:29;14.50;99.90
32446;DHT22;18899;50.748;7.102;2023-04-01T13:18:18;14.10;99.90
32446;DHT22;18899;50.748;7.102;2023-04-01T13:23:33;13.80;99.90
32446;DHT22;18899;50.748;7.102;2023-04-01T13:26:13;13.80;99.90
32446;DHT22;18899;50.748;7.102;2023-04-01T13:28:47;13.90;99.90
32446;DHT22;18899;50.748;7.102;2023-04-01T13:31:43;14.00;99.90
32446;DHT22;18899;50.748;7.102;2023-04-01T13:37:02;14.10;99.90
32446;DHT22;18899;50.748;7.102;2023-04-01T13:42:51;14.60;99.90
32446;DHT22;18899;50.748;7.102;2023-04-01T13:45:33;15.00;99.90
32446;DHT22;18899;50.748;7.102;2023-04-01T14:04:53;14.90;99.90
32446;DHT22;18899;50.748;7.102;2023-04-01T14:15:52;14.70;99.90
32446;DHT22;18899;50.748;7.102;2023-04-01T14:18:57;14.90;99.90
32446;DHT22;18899;50.748;7.102;2023-04-01T14:21:49;15.00;99.90
32446;DHT22;18899;50.748;7.102;2023-04-01T14:24:28;15.10;99.90
32446;DHT22;18899;50.748;7.102;2023-04-01T14:38:20;14.70;99.90
32446;DHT22;18899;50.748;7.102;2023-04-01T14:43:46;14.30;99.90
32446;DHT22;18899;50.748;7.102;2023-04-01T14:46:37;14.30;99.90
32446;DHT22;18899;50.748;7.102;2023-04-01T14:49:22;14.50;99.90
32446;DHT22;18899;50.748;7.102;2023-04-01T14:51:50;14.50;99.90
32446;DHT22;18899;50.748;7.102;2023-04-01T14:54:31;14.20;99.90
32446;DHT22;18899;50.748;7.102;2023-04-01T14:57:15;14.30;99.90
32446;DHT22;18899;50.748;7.102;2023-04-01T15:00:13;14.40;99.90
32446;DHT22;18899;50.748;7.102;2023-04-01T15:08:28;14.20;99.90
32446;DHT22;18899;50.748;7.102;2023-04-01T15:13:43;14.00;99.90
32446;DHT22;18899;50.748;7.102;2023-04-01T15:27:30;13.80;99.90
32446;DHT22;18899;50.748;7.102;2023-04-01T15:32:50;13.70;99.90
32446;DHT22;18899;50.748;7.102;2023-04-01T15:40:37;13.40;99.90
32446;DHT22;18899;50.748;7.102;2023-04-01T15:51:48;13.50;99.90
32446;DHT22;18899;50.748;7.102;2023-04-01T15:58:16;13.40;99.90
32446;DHT22;18899;50.748;7.102;2023-04-01T16:00:53;13.50;99.90
32446;DHT22;18899;50.748;7.102;2023-04-01T16:04:51;13.40;99.90
32446;DHT22;18899;50.748;7.102;2023-04-01T16:17:48;12.90;99.90
32446;DHT22;18899;50.748;7.102;2023-04-01T16:23:26;13.00;99.90
32446;DHT22;18899;50.748;7.102;2023-04-01T16:26:07;12.90;99.90
32446;DHT22;18899;50.748;7.102;2023-04-01T16:34:14;13.20;99.90
32446;DHT22;18899;50.748;7.102;2023-04-01T16:37:00;13.20;99.90
32446;DHT22;18899;50.748;7.102;2023-04-01T16:45:37;13.10;99.90
32446;DHT22;18899;50.748;7.102;2023-04-01T16:48:43;13.20;99.90
32446;DHT22;18899;50.748;7.102;2023-04-01T16:51:16;13.00;99.90
32446;DHT22;18899;50.748;7.102;2023-04-01T16:53:47;13.00;99.90
32446;DHT22;18899;50.748;7.102;2023-04-01T16:56:23;13.00;99.90
32446;DHT22;18899;50.748;7.102;2023-04-01T16:59:21;12.80;99.90
32446;DHT22;18899;50.748;7.102;2023-04-01T17:01:53;12.80;99.90
32446;DHT22;18899;50.748;7.102;2023-04-01T17:05:03;12.70;99.90
32446;DHT22;18899;50.748;7.102;2023-04-01T17:16:24;12.00;99.90
32446;DHT22;18899;50.748;7.102;2023-04-01T17:22:04;12.20;99.90
32446;DHT22;18899;50.748;7.102;2023-04-01T17:27:51;12.00;99.90
32446;DHT22;18899;50.748;7.102;2023-04-01T17:30:33;11.80;99.90
32446;DHT22;18899;50.748;7.102;2023-04-01T17:39:27;11.70;99.90
32446;DHT22;18899;50.748;7.102;2023-04-01T17:41:47;11.70;99.90
32446;DHT22;18899;50.748;7.102;2023-04-01T17:44:31;11.70;99.90
32446;DHT22;18899;50.748;7.102;2023-04-01T17:50:10;11.70;99.90
32446;DHT22;18899;50.748;7.102;2023-04-01T17:58:21;11.80;99.90
32446;DHT22;18899;50.748;7.102;2023-04-01T18:00:50;11.80;99.90
32446;DHT22;18899;50.748;7.102;2023-04-01T18:03:54;11.90;99.90
32446;DHT22;18899;50.748;7.102;2023-04-01T18:14:54;11.70;99.90
32446;DHT22;18899;50.748;7.102;2023-04-01T18:17:33;11.80;99.90
32446;DHT22;18899;50.748;7.102;2023-04-01T18:20:31;11.80;99.90
32446;DHT22;18899;50.748;7.102;2023-04-01T18:25:45;11.80;99.90
32446;DHT22;18899;50.748;7.102;2023-04-01T18:28:35;11.80;99.90
32446;DHT22;18899;50.748;7.102;2023-04-01T18:31:06;11.70;99.90
32446;DHT22;18899;50.748;7.102;2023-04-01T18:34:02;11.60;99.90
32446;DHT22;18899;50.748;7.102;2023-04-01T18:36:56;11.50;99.90
32446;DHT22;18899;50.748;7.102;2023-04-01T18:39:39;11.60;99.90
32446;DHT22;18899;50.748;7.102;2023-04-01T18:42:41;11.60;99.90
32446;DHT22;18899;50.748;7.102;2023-04-01T18:48:07;11.40;99.90
32446;DHT22;18899;50.748;7.102;2023-04-01T18:50:52;11.40;99.90
32446;DHT22;18899;50.748;7.102;2023-04-01T18:53:31;11.40;99.90
32446;DHT22;18899;50.748;7.102;2023-04-01T18:56:06;11.50;99.90
32446;DHT22;18899;50.748;7.102;2023-04-01T18:58:42;11.40;99.90
32446;DHT22;18899;50.748;7.102;2023-04-01T19:01:16;11.60;99.90
32446;DHT22;18899;50.748;7.102;2023-04-01T19:04:16;11.40;99.90
32446;DHT22;18899;50.748;7.102;2023-04-01T19:06:51;11.30;99.90
32446;DHT22;18899;50.748;7.102;2023-04-01T19:09:22;11.30;99.90
32446;DHT22;18899;50.748;7.102;2023-04-01T19:15:03;11.30;99.90
32446;DHT22;18899;50.748;7.102;2023-04-01T19:17:56;11.30;99.90
32446;DHT22;18899;50.748;7.102;2023-04-01T19:20:40;11.20;99.90
32446;DHT22;18899;50.748;7.102;2023-04-01T19:26:29;11.30;99.90
32446;DHT22;18899;50.748;7.102;2023-04-01T19:34:41;11.30;99.90
32446;DHT22;18899;50.748;7.102;2023-04-01T19:42:37;11.10;99.90
32446;DHT22;18899;50.748;7.102;2023-04-01T19:50:57;11.30;99.90
32446;DHT22;18899;50.748;7.102;2023-04-01T19:58:41;11.30;99.90
32446;DHT22;18899;50.748;7.102;2023-04-01T20:01:24;11.30;99.90
32446;DHT22;18899;50.748;7.102;2023-04-01T20:03:58;11.30;99.90
32446;DHT22;18899;50.748;7.102;2023-04-01T20:06:50;11.30;99.90
32446;DHT22;18899;50.748;7.102;2023-04-01T20:09:42;11.20;99.90
32446;DHT22;18899;50.748;7.102;2023-04-01T20:17:48;10.90;99.90
32446;DHT22;18899;50.748;7.102;2023-04-01T20:20:21;10.80;99.90
32446;DHT22;18899;50.748;7.102;2023-04-01T20:23:03;10.80;99.90
32446;DHT22;18899;50.748;7.102;2023-04-01T20:25:54;10.80;99.90
32446;DHT22;18899;50.748;7.102;2023-04-01T20:28:37;10.80;99.90
32446;DHT22;18899;50.748;7.102;2023-04-01T20:31:23;10.80;99.90
32446;DHT22;18899;50.748;7.102;2023-04-01T20:34:06;10.80;99.90
32446;DHT22;18899;50.748;7.102;2023-04-01T20:36:56;10.70;99.90
32446;DHT22;18899;50.748;7.102;2023-04-01T20:39:47;10.80;99.90
32446;DHT22;18899;50.748;7.102;2023-04-01T20:50:59;10.90;99.90
32446;DHT22;18899;50.748;7.102;2023-04-01T20:53:43;10.80;99.90
32446;DHT22;18899;50.748;7.102;2023-04-01T21:07:11;10.60;99.90
32446;DHT22;18899;50.748;7.102;2023-04-01T21:12:28;10.50;99.90
32446;DHT22;18899;50.748;7.102;2023-04-01T21:18:23;10.50;99.90
32446;DHT22;18899;50.748;7.102;2023-04-01T21:26:54;10.50;99.90
32446;DHT22;18899;50.748;7.102;2023-04-01T21:41:23;10.30;99.90
32446;DHT22;18899;50.748;7.102;2023-04-01T21:43:57;10.30;99.90
32446;DHT22;18899;50.748;7.102;2023-04-01T21:57:44;10.30;99.90
32446;DHT22;18899;50.748;7.102;2023-04-01T22:00:29;10.30;99.90
32446;DHT22;18899;50.748;7.102;2023-04-01T22:03:28;10.40;99.90
32446;DHT22;18899;50.748;7.102;2023-04-01T22:06:11;10.30;99.90
32446;DHT22;18899;50.748;7.102;2023-04-01T22:09:02;10.20;99.90
32446;DHT22;18899;50.748;7.102;2023-04-01T22:11:42;10.30;99.90
32446;DHT22;18899;50.748;7.102;2023-04-01T22:14:30;10.20;99.90
32446;DHT22;18899;50.748;7.102;2023-04-01T22:17:13;10.20;99.90
32446;DHT22;18899;50.748;7.102;2023-04-01T22:19:52;10.20;99.90
32446;DHT22;18899;50.748;7.102;2023-04-01T22:22:26;10.20;99.90
32446;DHT22;18899;50.748;7.102;2023-04-01T22:25:11;10.20;99.90
32446;DHT22;18899;50.748;7.102;2023-04-01T22:27:51;10.30;99.90
32446;DHT22;18899;50.748;7.102;2023-04-01T22:30:24;10.30;99.90
32446;DHT22;18899;50.748;7.102;2023-04-01T22:41:13;10.50;99.90
32446;DHT22;18899;50.748;7.102;2023-04-01T22:43:43;10.60;99.90
32446;DHT22;18899;50.748;7.102;2023-04-01T22:51:22;10.70;99.90
32446;DHT22;18899;50.748;7.102;2023-04-01T22:54:02;10.80;99.90
32446;DHT22;18899;50.748;7.102;2023-04-01T22:56:36;10.60;99.90
32446;DHT22;18899;50.748;7.102;2023-04-01T23:01:55;10.50;99.90
32446;DHT22;18899;50.748;7.102;2023-04-01T23:04:24;10.50;99.90
32446;DHT22;18899;50.748;7.102;2023-04-01T23:06:58;10.40;99.90
32446;DHT22;18899;50.748;7.102;2023-04-01T23:09:28;10.60;99.90
32446;DHT22;18899;50.748;7.102;2023-04-01T23:25:28;10.20;99.90
32446;DHT22;18899;50.748;7.102;2023-04-01T23:28:04;10.30;99.90
32446;DHT22;18899;50.748;7.102;2023-04-01T23:33:28;10.40;99.90
32446;DHT22;18899;50.748;7.102;2023-04-01T23:36:12;10.40;99.90
32446;DHT22;18899;50.748;7.102;2023-04-01T23:38:41;10.40;99.90
32446;DHT22;18899;50.748;7.102;2023-04-01T23:41:16;10.20;99.90
32446;DHT22;18899;50.748;7.102;2023-04-01T23:43:43;10.30;99.90
32446;DHT22;18899;50.748;7.102;2023-04-01T23:46:11;10.20;99.90
32446;DHT22;18899;50.748;7.102;2023-04-01T23:48:45;10.20;99.90
32446;DHT22;18899;50.748;7.102;2023-04-01T23:51:28;10.20;99.90
32446;DHT22;18899;50.748;7.102;2023-04-01T23:54:02;10.30;99.90
32446;DHT22;18899;50.748;7.102;2023-04-01T23:56:39;10.30;99.90
32446;DHT22;18899;50.748;7.102;2023-04-01T23:59:16;10.30;99.90
